createdAt,value
2022-12-14T00:02:09.211Z,24.73
2022-12-14T00:04:36.330Z,26.23
2022-12-14T00:07:03.449Z,27.40
2022-12-14T00:09:30.608Z,25.37
2022-12-14T00:11:57.670Z,26.07
2022-12-14T00:14:24.860Z,25.97
2022-12-14T00:16:56.885Z,27.03
2022-12-14T00:19:28.345Z,26.17
2022-12-14T00:21:56.145Z,25.67
2022-12-14T00:24:23.230Z,27.90
2022-12-14T00:26:50.801Z,26.77
2022-12-14T00:29:18.112Z,26.50
2022-12-14T00:31:52.037Z,23.73
2022-12-14T00:34:19.229Z,25.30
2022-12-14T00:36:46.289Z,24.90
2022-12-14T00:39:18.023Z,24.77
2022-12-14T00:41:49.737Z,25.73
2022-12-14T00:44:16.846Z,26.20
2022-12-14T00:46:44.046Z,25.67
2022-12-14T00:49:16.085Z,24.07
2022-12-14T00:51:47.562Z,28.13
2022-12-14T00:54:17.156Z,27.50
2022-12-14T00:56:46.560Z,23.93
2022-12-14T00:59:17.238Z,24.93
2022-12-14T01:01:46.781Z,23.90
2022-12-14T01:04:19.575Z,23.13
2022-12-14T01:06:51.260Z,21.37
2022-12-14T01:09:20.311Z,26.40
2022-12-14T01:11:47.990Z,24.77
2022-12-14T01:14:17.016Z,24.23
2022-12-14T01:16:46.213Z,25.17
2022-12-14T01:19:14.201Z,20.93
2022-12-14T01:21:41.688Z,26.93
2022-12-14T01:24:11.416Z,23.27
2022-12-14T01:26:39.844Z,24.63
2022-12-14T01:29:07.948Z,24.30
2022-12-14T01:31:36.916Z,26.73
2022-12-14T01:34:04.283Z,23.83
2022-12-14T01:36:35.812Z,22.93
2022-12-14T01:39:14.030Z,24.13
2022-12-14T01:41:47.241Z,22.63
2022-12-14T01:44:17.414Z,24.13
2022-12-14T01:47:00.181Z,22.90
2022-12-14T01:50:10.416Z,25.73
2022-12-14T01:52:44.200Z,24.67
2022-12-14T01:55:33.566Z,24.57
2022-12-14T01:58:03.260Z,22.33
2022-12-14T02:00:31.021Z,22.97
2022-12-14T02:03:12.073Z,22.77
2022-12-14T02:05:47.161Z,21.80
2022-12-14T02:08:17.311Z,23.00
2022-12-14T02:10:47.957Z,22.20
2022-12-14T02:13:21.201Z,20.93
2022-12-14T02:15:53.881Z,24.13
2022-12-14T02:18:23.991Z,24.10
2022-12-14T02:21:12.299Z,22.23
2022-12-14T02:23:54.514Z,22.40
2022-12-14T02:27:04.027Z,21.10
2022-12-14T02:29:39.811Z,20.37
2022-12-14T02:32:28.207Z,20.80
2022-12-14T02:35:13.094Z,22.93
2022-12-14T02:37:57.170Z,21.33
2022-12-14T02:40:38.251Z,24.77
2022-12-14T02:43:24.299Z,22.90
2022-12-14T02:45:57.722Z,21.17
2022-12-14T02:48:39.183Z,20.47
2022-12-14T02:51:23.580Z,23.20
2022-12-14T02:54:41.625Z,20.97
2022-12-14T02:57:37.305Z,20.23
2022-12-14T03:00:07.613Z,24.70
2022-12-14T03:02:37.639Z,24.97
2022-12-14T03:05:05.366Z,24.20
2022-12-14T03:07:58.140Z,24.33
2022-12-14T03:10:28.343Z,23.73
2022-12-14T03:13:03.504Z,21.67
2022-12-14T03:15:32.326Z,22.97
2022-12-14T03:18:04.056Z,23.63
2022-12-14T03:20:34.045Z,24.10
2022-12-14T03:23:03.027Z,23.37
2022-12-14T03:25:38.675Z,22.93
2022-12-14T03:28:13.217Z,23.43
2022-12-14T03:31:00.386Z,22.70
2022-12-14T03:33:32.579Z,23.57
2022-12-14T03:36:10.697Z,24.63
2022-12-14T03:38:47.930Z,21.97
2022-12-14T03:41:28.387Z,20.83
2022-12-14T03:44:18.152Z,23.17
2022-12-14T03:47:04.518Z,21.30
2022-12-14T03:49:52.983Z,22.57
2022-12-14T03:52:37.714Z,21.20
2022-12-14T03:55:36.472Z,20.40
2022-12-14T03:58:21.567Z,20.60
2022-12-14T04:01:03.515Z,22.03
2022-12-14T04:03:54.309Z,24.73
2022-12-14T04:06:27.972Z,23.97
2022-12-14T04:09:24.946Z,23.40
2022-12-14T04:12:21.504Z,25.57
2022-12-14T04:15:14.607Z,22.87
2022-12-14T04:18:04.762Z,22.23
2022-12-14T04:20:41.045Z,22.13
2022-12-14T04:23:16.639Z,22.03
2022-12-14T04:26:07.860Z,22.30
2022-12-14T04:29:09.844Z,22.60
2022-12-14T04:31:49.119Z,22.30
2022-12-14T04:34:21.000Z,22.30
2022-12-14T04:36:57.176Z,20.77
2022-12-14T04:39:54.172Z,22.93
2022-12-14T04:42:28.422Z,20.47
2022-12-14T04:45:06.296Z,22.70
2022-12-14T04:47:38.521Z,20.93
2022-12-14T04:50:30.477Z,23.33
2022-12-14T04:53:20.137Z,23.87
2022-12-14T04:56:10.184Z,21.43
2022-12-14T04:58:40.624Z,22.17
2022-12-14T05:01:49.164Z,19.73
2022-12-14T05:04:25.491Z,22.77
2022-12-14T05:07:23.097Z,20.87
2022-12-14T05:10:00.564Z,20.97
2022-12-14T05:12:35.662Z,21.97
2022-12-14T05:15:12.112Z,22.93
2022-12-14T05:17:44.611Z,22.77
2022-12-14T05:20:17.946Z,25.60
2022-12-14T05:22:45.251Z,23.47
2022-12-14T05:25:12.691Z,22.57
2022-12-14T05:27:42.092Z,24.23
2022-12-14T05:30:12.023Z,24.67
2022-12-14T05:32:39.945Z,24.57
2022-12-14T05:35:08.677Z,24.23
2022-12-14T05:37:38.252Z,27.63
2022-12-14T05:40:08.918Z,25.30
2022-12-14T05:42:39.602Z,26.13
2022-12-14T05:45:13.181Z,27.13
2022-12-14T05:47:41.167Z,27.60
2022-12-14T05:50:10.816Z,28.63
2022-12-14T05:52:45.159Z,27.60
2022-12-14T05:55:12.236Z,24.77
2022-12-14T05:57:41.468Z,25.57
2022-12-14T06:00:11.952Z,26.07
2022-12-14T06:02:44.183Z,24.70
2022-12-14T06:05:13.891Z,23.03
2022-12-14T06:07:43.642Z,24.53
2022-12-14T06:10:13.562Z,25.30
2022-12-14T06:12:43.663Z,25.57
2022-12-14T06:15:10.991Z,26.63
2022-12-14T06:17:46.334Z,27.77
2022-12-14T06:20:14.208Z,24.03
2022-12-14T06:22:47.588Z,23.97
2022-12-14T06:25:15.237Z,24.37
2022-12-14T06:27:44.583Z,23.10
2022-12-14T06:30:12.458Z,26.63
2022-12-14T06:32:44.853Z,27.67
2022-12-14T06:35:14.169Z,25.27
2022-12-14T06:37:41.422Z,29.10
2022-12-14T06:40:11.432Z,24.43
2022-12-14T06:42:40.677Z,24.67
2022-12-14T06:45:08.335Z,26.23
2022-12-14T06:47:37.868Z,26.13
2022-12-14T06:50:05.419Z,48.97
2022-12-14T06:52:34.824Z,27.30
2022-12-14T06:55:04.722Z,27.90
2022-12-14T06:57:36.235Z,24.87
2022-12-14T07:00:06.316Z,26.43
2022-12-14T07:02:33.693Z,30.13
2022-12-14T07:05:03.340Z,28.17
2022-12-14T07:07:33.442Z,28.67
2022-12-14T07:10:04.253Z,25.43
2022-12-14T07:12:33.865Z,28.20
2022-12-14T07:15:01.104Z,26.70
2022-12-14T07:17:30.649Z,26.07
2022-12-14T07:19:57.821Z,26.33
2022-12-14T07:22:27.609Z,29.07
2022-12-14T07:24:54.753Z,27.07
2022-12-14T07:27:23.963Z,28.20
2022-12-14T07:29:53.270Z,29.30
2022-12-14T07:32:23.110Z,28.00
2022-12-14T07:34:52.524Z,35.43
2022-12-14T07:37:20.499Z,30.27
2022-12-14T07:39:47.671Z,28.70
2022-12-14T07:42:17.326Z,30.00
2022-12-14T07:44:47.074Z,28.93
2022-12-14T07:47:16.656Z,30.00
2022-12-14T07:49:46.453Z,23.47
2022-12-14T07:52:19.517Z,26.33
2022-12-14T07:54:46.591Z,26.77
2022-12-14T07:57:13.813Z,27.03
2022-12-14T07:59:43.141Z,26.27
2022-12-14T08:02:12.088Z,25.97
2022-12-14T08:04:39.341Z,28.87
2022-12-14T08:07:06.514Z,27.57
2022-12-14T08:09:35.758Z,31.60
2022-12-14T08:12:05.147Z,28.37
2022-12-14T08:14:32.371Z,34.30
2022-12-14T08:17:01.744Z,29.50
2022-12-14T08:19:28.893Z,26.90
2022-12-14T08:21:56.057Z,30.00
2022-12-14T08:24:25.767Z,28.83
2022-12-14T08:26:53.008Z,26.10
2022-12-14T08:29:21.370Z,28.73
2022-12-14T08:31:50.943Z,27.47
2022-12-14T08:34:22.807Z,30.10
2022-12-14T08:36:54.758Z,31.80
2022-12-14T08:39:24.373Z,31.53
2022-12-14T08:41:56.057Z,29.53
2022-12-14T08:44:23.201Z,30.50
2022-12-14T08:46:54.873Z,33.17
2022-12-14T08:49:27.718Z,31.20
2022-12-14T08:51:59.661Z,31.20
2022-12-14T08:54:29.025Z,30.47
2022-12-14T08:57:01.666Z,30.80
2022-12-14T08:59:59.682Z,29.03
2022-12-14T09:02:16.768Z,31.67
2022-12-14T09:04:43.946Z,28.77
2022-12-14T09:07:13.373Z,29.60
2022-12-14T09:09:40.616Z,35.50
2022-12-14T09:12:07.801Z,47.10
2022-12-14T09:14:37.997Z,32.43
2022-12-14T09:17:05.123Z,32.77
2022-12-14T09:19:32.320Z,32.93
2022-12-14T09:22:01.771Z,30.47
2022-12-14T09:24:29.081Z,30.40
2022-12-14T09:27:02.017Z,32.47
2022-12-14T09:29:30.323Z,27.00
2022-12-14T09:32:02.279Z,27.20
2022-12-14T09:34:29.611Z,31.30
2022-12-14T09:37:07.403Z,29.50
2022-12-14T09:39:36.920Z,29.77
2022-12-14T09:42:38.338Z,25.07
2022-12-14T09:45:21.878Z,31.03
2022-12-14T09:48:10.682Z,26.53
2022-12-14T09:50:39.621Z,28.10
2022-12-14T09:53:12.924Z,27.40
2022-12-14T09:55:43.221Z,29.93
2022-12-14T09:58:18.677Z,30.03
2022-12-14T10:00:59.030Z,30.07
2022-12-14T10:03:46.539Z,31.20
2022-12-14T10:06:22.059Z,35.23
2022-12-14T10:09:05.182Z,32.70
2022-12-14T10:12:00.597Z,30.90
2022-12-14T10:14:42.683Z,32.10
2022-12-14T10:17:33.002Z,26.47
2022-12-14T10:20:29.729Z,26.87
2022-12-14T10:23:02.121Z,28.20
2022-12-14T10:25:32.575Z,29.87
2022-12-14T10:28:42.157Z,29.77
2022-12-14T10:31:24.271Z,28.97
2022-12-14T10:34:03.159Z,33.90
2022-12-14T10:36:44.714Z,30.30
2022-12-14T10:40:04.678Z,31.13
2022-12-14T10:42:57.611Z,30.50
2022-12-14T10:45:42.791Z,28.93
2022-12-14T10:48:18.682Z,31.60
2022-12-14T10:51:00.051Z,30.07
2022-12-14T10:53:48.646Z,29.60
2022-12-14T10:56:38.599Z,29.63
2022-12-14T10:59:18.066Z,29.53
2022-12-14T11:02:05.009Z,32.43
2022-12-14T11:04:55.687Z,29.33
2022-12-14T11:07:26.458Z,32.13
2022-12-14T11:10:13.890Z,27.20
2022-12-14T11:12:41.826Z,26.93
2022-12-14T11:15:31.941Z,31.37
2022-12-14T11:18:17.727Z,26.47
2022-12-14T11:20:54.145Z,23.87
2022-12-14T11:23:28.611Z,28.63
2022-12-14T11:26:02.176Z,30.33
2022-12-14T11:28:50.089Z,25.77
2022-12-14T11:31:47.129Z,27.67
2022-12-14T11:34:31.058Z,29.17
2022-12-14T11:37:29.955Z,25.93
2022-12-14T11:39:59.730Z,25.40
2022-12-14T11:42:29.325Z,25.57
2022-12-14T11:45:27.701Z,27.43
2022-12-14T11:48:13.539Z,29.83
2022-12-14T11:50:44.652Z,25.53
2022-12-14T11:53:14.579Z,25.53
2022-12-14T11:55:50.573Z,29.33
2022-12-14T11:58:28.985Z,29.37
2022-12-14T12:01:12.549Z,26.30
2022-12-14T12:03:55.171Z,34.73
2022-12-14T12:06:27.585Z,27.50
2022-12-14T12:08:57.532Z,27.00
2022-12-14T12:11:28.366Z,28.87
2022-12-14T12:14:07.560Z,29.67
2022-12-14T12:16:35.558Z,32.00
2022-12-14T12:19:12.860Z,27.93
2022-12-14T12:21:42.787Z,29.83
2022-12-14T12:24:22.245Z,29.60
2022-12-14T12:26:55.462Z,29.53
2022-12-14T12:29:53.040Z,29.00
2022-12-14T12:32:54.713Z,28.37
2022-12-14T12:35:37.252Z,29.80
2022-12-14T12:38:20.261Z,30.70
2022-12-14T12:41:04.519Z,28.07
2022-12-14T12:43:50.343Z,31.67
2022-12-14T12:46:27.703Z,30.37
2022-12-14T12:49:05.639Z,30.07
2022-12-14T12:51:51.049Z,28.23
2022-12-14T12:54:24.632Z,29.50
2022-12-14T12:56:55.886Z,28.30
2022-12-14T12:59:37.894Z,26.63
2022-12-14T13:02:25.899Z,29.83
2022-12-14T13:04:54.422Z,25.57
2022-12-14T13:07:46.228Z,28.23
2022-12-14T13:10:30.753Z,27.73
2022-12-14T13:13:15.557Z,28.23
2022-12-14T13:15:49.869Z,30.40
2022-12-14T13:21:44.054Z,25.90
2022-12-14T13:24:21.894Z,26.53
2022-12-14T13:26:58.822Z,25.67
2022-12-14T13:29:36.961Z,26.40
2022-12-14T13:32:21.506Z,25.63
2022-12-14T13:34:58.843Z,24.73
2022-12-14T13:37:46.521Z,26.60
2022-12-14T13:40:53.476Z,26.97
2022-12-14T13:43:34.086Z,26.57
2022-12-14T13:46:16.951Z,29.27
2022-12-14T13:48:50.201Z,29.67
2022-12-14T13:51:29.208Z,27.60
2022-12-14T13:54:04.372Z,27.77
2022-12-14T13:56:38.435Z,25.93
2022-12-14T13:59:29.387Z,28.20
2022-12-14T14:02:01.625Z,24.90
2022-12-14T14:04:35.569Z,29.40
2022-12-14T14:07:37.436Z,30.27
2022-12-14T14:10:06.726Z,29.27
2022-12-14T14:12:39.403Z,27.87
2022-12-14T14:16:03.893Z,29.27
2022-12-14T14:18:47.102Z,28.00
2022-12-14T14:21:14.300Z,27.90
2022-12-14T14:24:01.028Z,27.43
2022-12-14T14:26:35.667Z,27.87
2022-12-14T14:29:17.603Z,27.93
2022-12-14T14:31:52.690Z,27.77
2022-12-14T14:34:34.301Z,26.67
2022-12-14T14:37:14.875Z,28.80
2022-12-14T14:39:56.963Z,26.33
2022-12-14T14:42:29.511Z,24.83
2022-12-14T14:45:02.901Z,25.57
2022-12-14T14:47:33.431Z,28.10
2022-12-14T14:50:05.312Z,27.07
2022-12-14T14:52:41.593Z,28.97
2022-12-14T14:55:52.657Z,29.67
2022-12-14T14:58:26.849Z,30.30
2022-12-14T15:01:17.571Z,30.67
2022-12-14T15:04:02.330Z,28.10
2022-12-14T15:06:33.454Z,26.10
2022-12-14T15:09:05.210Z,27.73
2022-12-14T15:11:42.778Z,28.20
2022-12-14T15:14:43.356Z,28.77
2022-12-14T15:17:18.353Z,30.67
2022-12-14T15:19:51.621Z,32.77
2022-12-14T15:22:44.868Z,28.80
2022-12-14T15:25:24.152Z,29.03
2022-12-14T15:27:55.974Z,25.47
2022-12-14T15:30:27.957Z,29.13
2022-12-14T15:33:07.838Z,27.07
2022-12-14T15:35:40.099Z,29.87
2022-12-14T15:38:16.921Z,25.50
2022-12-14T15:40:57.627Z,30.57
2022-12-14T15:43:28.954Z,29.73
2022-12-14T15:46:04.288Z,29.07
2022-12-14T15:48:36.378Z,27.63
2022-12-14T15:51:07.163Z,27.73
2022-12-14T15:53:36.626Z,32.57
2022-12-14T15:56:30.651Z,32.57
2022-12-14T15:59:31.596Z,31.60
2022-12-14T16:02:15.333Z,32.20
2022-12-14T16:04:45.758Z,30.07
2022-12-14T16:07:20.630Z,31.23
2022-12-14T16:09:54.537Z,30.60
2022-12-14T16:12:31.319Z,31.63
2022-12-14T16:15:03.250Z,27.17
2022-12-14T16:17:37.681Z,29.97
2022-12-14T16:20:19.674Z,29.90
2022-12-14T16:23:05.213Z,28.57
2022-12-14T16:25:36.971Z,31.43
2022-12-14T16:28:42.205Z,30.90
2022-12-14T16:31:14.939Z,31.97
2022-12-14T16:33:43.908Z,31.57
2022-12-14T16:36:20.602Z,33.57
2022-12-14T16:39:07.300Z,33.93
2022-12-14T16:41:44.853Z,33.10
2022-12-14T16:44:39.147Z,36.37
2022-12-14T16:47:15.102Z,31.13
2022-12-14T16:50:03.655Z,34.10
2022-12-14T16:52:36.909Z,35.67
2022-12-14T16:55:26.198Z,34.97
2022-12-14T16:57:58.662Z,33.97
2022-12-14T17:00:34.996Z,33.00
2022-12-14T17:03:06.046Z,37.73
2022-12-14T17:05:39.861Z,34.53
2022-12-14T17:08:13.755Z,36.77
2022-12-14T17:10:40.890Z,34.63
2022-12-14T17:13:08.023Z,41.57
2022-12-14T17:15:51.977Z,36.37
2022-12-14T17:18:25.673Z,37.53
2022-12-14T17:20:53.478Z,40.50
2022-12-14T17:23:20.846Z,35.77
2022-12-14T17:25:48.205Z,38.37
2022-12-14T17:28:28.790Z,35.83
2022-12-14T17:31:02.659Z,36.00
2022-12-14T17:33:31.698Z,29.20
2022-12-14T17:36:01.780Z,32.47
2022-12-14T17:38:31.824Z,33.43
2022-12-14T17:40:58.973Z,32.60
2022-12-14T17:43:29.458Z,34.57
2022-12-14T17:46:03.306Z,35.13
2022-12-14T17:48:30.795Z,33.77
2022-12-14T17:50:58.034Z,37.27
2022-12-14T17:53:30.628Z,38.93
2022-12-14T17:56:00.736Z,37.37
2022-12-14T17:58:27.907Z,35.13
2022-12-14T18:01:01.085Z,39.10
2022-12-14T18:03:31.082Z,47.00
2022-12-14T18:05:59.586Z,36.70
2022-12-14T18:08:26.903Z,37.67
2022-12-14T18:10:57.337Z,33.50
2022-12-14T18:13:27.746Z,36.33
2022-12-14T18:15:55.245Z,32.93
2022-12-14T18:18:25.085Z,34.60
2022-12-14T18:20:57.616Z,40.07
2022-12-14T18:23:27.784Z,32.40
2022-12-14T18:25:57.432Z,37.17
2022-12-14T18:28:26.810Z,33.87
2022-12-14T18:31:00.062Z,37.27
2022-12-14T18:33:30.179Z,35.57
2022-12-14T18:36:00.194Z,36.50
2022-12-14T18:38:31.529Z,43.90
2022-12-14T18:41:00.265Z,43.40
2022-12-14T18:43:29.000Z,38.97
2022-12-14T18:45:56.941Z,42.13
2022-12-14T18:48:25.011Z,38.77
2022-12-14T18:50:55.594Z,36.37
2022-12-14T18:53:27.211Z,40.70
2022-12-14T18:55:54.880Z,35.13
2022-12-14T18:58:25.272Z,39.93
2022-12-14T19:00:55.123Z,39.00
2022-12-14T19:03:25.807Z,37.57
2022-12-14T19:06:26.611Z,36.30
2022-12-14T19:08:51.003Z,40.33
2022-12-14T19:11:39.123Z,39.27
2022-12-14T19:14:06.902Z,34.27
2022-12-14T19:16:34.266Z,39.43
2022-12-14T19:19:04.022Z,36.97
2022-12-14T19:21:33.604Z,39.17
2022-12-14T19:24:03.109Z,39.73
2022-12-14T19:26:30.841Z,38.17
2022-12-14T19:29:02.959Z,37.70
2022-12-14T19:31:33.367Z,39.67
2022-12-14T19:34:03.095Z,41.10
2022-12-14T19:36:30.259Z,43.90
2022-12-14T19:38:58.844Z,42.60
2022-12-14T19:41:28.420Z,45.30
2022-12-14T19:43:58.653Z,49.30
2022-12-14T19:46:26.155Z,45.53
2022-12-14T19:48:53.376Z,49.70
2022-12-14T19:51:22.841Z,50.67
2022-12-14T19:53:54.205Z,45.40
2022-12-14T19:56:21.416Z,43.13
2022-12-14T19:58:48.616Z,44.83
2022-12-14T20:01:17.874Z,42.17
2022-12-14T20:03:45.278Z,49.43
2022-12-14T20:06:17.076Z,44.27
2022-12-14T20:08:46.017Z,47.17
2022-12-14T20:11:16.923Z,48.30
2022-12-14T20:13:44.056Z,49.00
2022-12-14T20:16:17.301Z,48.40
2022-12-14T20:18:45.224Z,44.83
2022-12-14T20:21:22.076Z,49.17
2022-12-14T20:23:50.309Z,49.73
2022-12-14T20:26:21.632Z,51.37
2022-12-14T20:28:54.157Z,44.97
2022-12-14T20:31:22.502Z,45.67
2022-12-14T20:33:50.250Z,44.23
2022-12-14T20:36:19.550Z,46.10
2022-12-14T20:38:53.899Z,47.40
2022-12-14T20:41:23.409Z,45.63
2022-12-14T20:43:55.824Z,45.17
2022-12-14T20:46:35.016Z,45.30
2022-12-14T20:49:07.876Z,43.63
2022-12-14T20:51:37.602Z,46.03
2022-12-14T20:54:11.051Z,44.73
2022-12-14T20:56:41.149Z,46.23
2022-12-14T20:59:08.927Z,46.13
2022-12-14T21:01:41.107Z,47.07
2022-12-14T21:04:09.379Z,47.53
2022-12-14T21:06:41.044Z,50.07
2022-12-14T21:09:12.009Z,47.97
2022-12-14T21:12:05.471Z,46.93
2022-12-14T21:14:42.620Z,48.47
2022-12-14T21:17:15.195Z,48.93
2022-12-14T21:19:42.397Z,48.20
2022-12-14T21:22:16.365Z,49.97
2022-12-14T21:25:02.549Z,51.77
2022-12-14T21:27:31.496Z,49.57
2022-12-14T21:30:00.071Z,45.97
2022-12-14T21:32:29.836Z,48.30
2022-12-14T21:35:01.092Z,44.77
2022-12-14T21:37:30.311Z,46.10
2022-12-14T21:39:57.445Z,49.60
2022-12-14T21:42:25.462Z,43.10
2022-12-14T21:44:54.088Z,49.00
2022-12-14T21:47:27.170Z,47.93
2022-12-14T21:49:55.288Z,48.67
2022-12-14T21:52:25.530Z,46.33
2022-12-14T21:54:55.338Z,44.67
2022-12-14T21:57:50.151Z,44.93
2022-12-14T22:00:18.795Z,46.50
2022-12-14T22:02:46.047Z,45.37
2022-12-14T22:05:17.692Z,41.93
2022-12-14T22:07:45.034Z,46.60
2022-12-14T22:10:12.136Z,44.07
2022-12-14T22:12:41.379Z,45.13
2022-12-14T22:15:15.224Z,38.47
2022-12-14T22:17:42.374Z,43.23
2022-12-14T22:20:10.018Z,52.53
2022-12-14T22:22:41.768Z,48.90
2022-12-14T22:25:11.272Z,46.13
2022-12-14T22:27:43.275Z,47.80
2022-12-14T22:30:19.437Z,46.70
2022-12-14T22:32:48.626Z,51.17
2022-12-14T22:35:15.809Z,46.90
2022-12-14T22:37:45.274Z,47.53
2022-12-14T22:40:12.579Z,47.63
2022-12-14T22:42:41.716Z,48.13
2022-12-14T22:45:11.578Z,44.40
2022-12-14T22:47:38.742Z,45.10
2022-12-14T22:50:06.504Z,49.10
2022-12-14T22:52:33.682Z,49.90
2022-12-14T22:55:03.800Z,49.57
2022-12-14T22:57:39.070Z,48.10
2022-12-14T23:00:11.636Z,46.27
2022-12-14T23:02:48.230Z,50.63
2022-12-14T23:05:17.348Z,46.87
2022-12-14T23:07:49.139Z,50.10
2022-12-14T23:10:36.955Z,44.50
2022-12-14T23:13:27.685Z,51.23
2022-12-14T23:16:13.409Z,49.13
2022-12-14T23:18:59.206Z,45.57
2022-12-14T23:21:49.859Z,50.13
2022-12-14T23:24:35.872Z,46.13
2022-12-14T23:27:23.886Z,49.73
2022-12-14T23:30:09.288Z,46.00
2022-12-14T23:32:55.507Z,51.13
2022-12-14T23:35:41.112Z,48.47
2022-12-14T23:38:27.152Z,47.50
2022-12-14T23:41:21.398Z,50.47
2022-12-14T23:44:06.874Z,48.10
2022-12-14T23:46:52.958Z,49.30
2022-12-14T23:49:41.135Z,51.43
2022-12-14T23:52:29.375Z,52.90
2022-12-14T23:55:17.355Z,50.47
2022-12-14T23:58:05.344Z,47.07
